Norwegian Sky — C6PZ8 — position and weather

sailwx.info

Track history (hours):
 
Tides and Currents Weather Stations Pressure Air Temp Water Temp Dewpoint Dewpoint Depression Visibility Wind Speed Wind Dir Waves Ship Positions

Norwegian Sky (Norway)

Operator: Norwegian Cruise Line

Last reported at 2017-Apr-25 02:31 UTC. Time now 2017-Apr-25 02:54 UTC.
Position N 26°09' W 079°26'.

Length 259 m; draft 8 m.

Type: Ship. MMSI: 308865000.

Date/timePositionNaut miles runAvg speedWind from/ knotsBaromVisibWave heightAir tempDewpointWater temp
2017-Apr-25 02:31N 26°09' W 079°26'4 8.0
2017-Apr-25 02:00N 26°06' W 079°30'6707.2
2017-Apr-25 02:00N 26°00' W 079°30'5 9.7 110 / 211008.0 5.4 25.022.229.0
2017-Apr-25 01:31N 26°04' W 079°33'4 8.0
2017-Apr-25 01:01N 26°01' W 079°36'4 8.2
2017-Apr-25 00:31N 25°59' W 079°40'4 8.0
2017-Apr-25 00:00N 25°57' W 079°44'4 8.3
2017-Apr-24 23:31N 25°54' W 079°48'4 8.6
2017-Apr-24 23:00N 25°52' W 079°52'4 8.2
2017-Apr-24 22:30N 25°50' W 079°56'4 9.0
2017-Apr-24 22:00N 25°47' W 079°60'510.5
2017-Apr-24 21:30N 25°46' W 080°05'4 8.4
2017-Apr-24 21:00N 25°47' W 080°10'0 0.1
2017-Apr-24 20:29N 25°47' W 080°10'0 0.0
2017-Apr-24 19:59N 25°47' W 080°10'0 0.0
2017-Apr-24 19:29N 25°47' W 080°10'0 0.0
2017-Apr-24 18:56N 25°47' W 080°10'0 0.0
2017-Apr-24 18:29N 25°47' W 080°10'0 0.0
2017-Apr-24 17:58N 25°47' W 080°10'0 0.0
2017-Apr-24 17:28N 25°47' W 080°10'0 0.0
2017-Apr-24 16:58N 25°47' W 080°10'0 0.0
2017-Apr-24 16:22N 25°47' W 080°10'0 0.0
2017-Apr-24 16:00N 25°47' W 080°10'0 0.0
2017-Apr-24 15:30N 25°47' W 080°10'0 0.0
2017-Apr-24 15:00N 25°47' W 080°10'0 0.0
2017-Apr-24 14:30N 25°47' W 080°10'0 0.0
2017-Apr-24 13:30N 25°47' W 080°10'0 0.0
2017-Apr-24 12:59N 25°47' W 080°10'0 0.0
2017-Apr-24 12:30N 25°47' W 080°10'0 0.0
2017-Apr-24 12:00N 25°47' W 080°10'0 0.0
2017-Apr-24 11:30N 25°47' W 080°10'0 0.0
2017-Apr-24 10:57N 25°47' W 080°10'0 0.0
2017-Apr-24 10:30N 25°47' W 080°10'0 0.0
2017-Apr-24 09:59N 25°47' W 080°10'0 0.0
2017-Apr-24 09:30N 25°47' W 080°10'0 0.8
2017-Apr-24 09:01N 25°47' W 080°10'1 2.9
2017-Apr-24 08:31N 25°46' W 080°09'611.2
2017-Apr-24 08:00N 25°47' W 080°03'611.3
2017-Apr-24 07:30N 25°49' W 079°57'612.6
2017-Apr-24 07:00N 25°52' W 079°51'713.5
2017-Apr-24 06:30N 25°55' W 079°44'815.9
2017-Apr-24 06:00N 25°59' W 079°36'917.3
2017-Apr-24 05:30N 26°03' W 079°28'918.0
2017-Apr-24 05:00N 26°07' W 079°19'82 3.0
2017-Apr-23 02:00N 26°06' W 077°48'86 3.8 100 / 221014.0 5.4 24.022.629.0
2017-Apr-22 03:23N 26°04' W 079°24'411.2
2017-Apr-22 03:00N 26°02' W 079°28'611.4
2017-Apr-22 02:30N 25°60' W 079°34'611.3
2017-Apr-22 02:00N 25°57' W 079°39'4343.2
2017-Apr-22 02:00N 25°54' W 079°36'816.4 110 / 211015.0 2.2 23.018.529.0
2017-Apr-22 01:30N 25°54' W 079°45'612.0
2017-Apr-22 01:00N 25°52' W 079°51'611.9
2017-Apr-22 00:30N 25°49' W 079°57'611.6
2017-Apr-22 00:00N 25°46' W 080°02'510.5
2017-Apr-21 23:31N 25°46' W 080°08'2 3.6
2017-Apr-21 22:59N 25°46' W 080°10'0 0.0
2017-Apr-21 22:28N 25°46' W 080°10'0 0.0
2017-Apr-21 21:58N 25°46' W 080°10'0 0.0
2017-Apr-21 21:25N 25°46' W 080°10'0 0.0
2017-Apr-21 20:58N 25°46' W 080°10'0 0.0
2017-Apr-21 20:28N 25°46' W 080°10'0 0.0
2017-Apr-21 20:00N 25°46' W 080°10'0 0.0
2017-Apr-21 19:30N 25°46' W 080°10'0 0.0
2017-Apr-21 19:00N 25°46' W 080°10'0 0.0
2017-Apr-21 18:30N 25°46' W 080°10'0 0.0
2017-Apr-21 17:56N 25°46' W 080°10'0 0.0
2017-Apr-21 17:29N 25°46' W 080°10'0 0.0
2017-Apr-21 16:59N 25°46' W 080°10'0 0.0
2017-Apr-21 16:29N 25°46' W 080°10'0 0.0
2017-Apr-21 15:59N 25°46' W 080°10'0 0.0
2017-Apr-21 15:25N 25°46' W 080°10'0 0.0
2017-Apr-21 14:58N 25°46' W 080°10'0 0.0
2017-Apr-21 14:25N 25°46' W 080°10'0 0.0
2017-Apr-21 13:28N 25°46' W 080°10'0 0.0
2017-Apr-21 12:57N 25°46' W 080°10'0 0.0
2017-Apr-21 12:27N 25°46' W 080°10'0 0.0
2017-Apr-21 12:00N 25°46' W 080°10'0 0.0
2017-Apr-21 11:30N 25°46' W 080°10'0 0.0
2017-Apr-21 11:00N 25°46' W 080°10'0 0.0
2017-Apr-21 10:30N 25°46' W 080°10'1 2.1
2017-Apr-21 10:00N 25°47' W 080°11'2 4.5
2017-Apr-21 09:30N 25°46' W 080°09'5 9.6
2017-Apr-21 09:01N 25°47' W 080°03'5 9.3
2017-Apr-21 08:31N 25°49' W 079°59'4 8.8
2017-Apr-21 08:00N 25°51' W 079°54'4 9.0
2017-Apr-21 07:31N 25°53' W 079°50'5 9.5
2017-Apr-21 07:00N 25°55' W 079°45'5 9.9
2017-Apr-21 06:31N 25°57' W 079°40'611.2
2017-Apr-21 06:00N 25°60' W 079°35'612.1
2017-Apr-21 05:30N 26°02' W 079°29'816.6
2017-Apr-21 05:00N 26°06' W 079°20'917.4
2017-Apr-21 04:30N 26°10' W 079°12'60 1.2
2017-Apr-19 02:00N 26°00' W 078°06'69 3.1 080 / 231021.0 2.2 23.018.529.0
2017-Apr-18 03:32N 26°12' W 079°22'1 8.7
2017-Apr-18 03:24N 26°12' W 079°23'3 8.6
2017-Apr-18 03:00N 26°09' W 079°26'4 8.4
2017-Apr-18 02:30N 26°07' W 079°29'4 8.4
2017-Apr-18 02:00N 26°04' W 079°33'5334.0
2017-Apr-18 02:00N 26°00' W 079°30'612.1 090 / 181019.0 2.2 24.019.629.0
2017-Apr-18 01:30N 26°01' W 079°36'4 8.7
2017-Apr-18 01:00N 25°58' W 079°40'4 8.5
2017-Apr-18 00:30N 25°56' W 079°44'4 8.7
2017-Apr-18 00:01N 25°54' W 079°48'5 9.1
2017-Apr-17 23:30N 25°52' W 079°53'5 9.3
2017-Apr-17 23:01N 25°49' W 079°57'5 9.5
2017-Apr-17 22:31N 25°47' W 080°02'510.1
2017-Apr-17 22:00N 25°45' W 080°07'4 7.7
2017-Apr-17 21:30N 25°47' W 080°11'1 2.0
2017-Apr-17 21:00N 25°47' W 080°10'0 0.0
2017-Apr-17 20:27N 25°47' W 080°10'0 0.0
2017-Apr-17 20:00N 25°47' W 080°10'0 0.0
2017-Apr-17 19:29N 25°47' W 080°10'0 0.0
2017-Apr-17 18:59N 25°47' W 080°10'0 0.0
2017-Apr-17 18:29N 25°47' W 080°10'0 0.0
2017-Apr-17 17:59N 25°47' W 080°10'0 0.0
2017-Apr-17 17:29N 25°47' W 080°10'0 0.0
2017-Apr-17 16:58N 25°47' W 080°10'0 0.0
2017-Apr-17 16:25N 25°47' W 080°10'0 0.0
2017-Apr-17 15:58N 25°47' W 080°10'0 0.0
2017-Apr-17 15:28N 25°47' W 080°10'0 0.0
2017-Apr-17 15:00N 25°47' W 080°10'0 0.0
2017-Apr-17 14:30N 25°47' W 080°10'0 0.0
2017-Apr-17 13:27N 25°47' W 080°10'0 0.0
2017-Apr-17 13:00N 25°47' W 080°10'0 0.0
2017-Apr-17 12:29N 25°47' W 080°10'0 0.0
2017-Apr-17 11:59N 25°47' W 080°10'0 0.0
2017-Apr-17 11:29N 25°47' W 080°10'0 0.0
2017-Apr-17 10:53N 25°47' W 080°10'0 0.0
2017-Apr-17 10:30N 25°47' W 080°10'0 0.0
2017-Apr-17 10:00N 25°47' W 080°10'3 5.9
2017-Apr-17 09:30N 25°45' W 080°07'611.5
2017-Apr-17 09:00N 25°48' W 080°01'4 8.5
2017-Apr-17 08:30N 25°49' W 079°57'4 8.4
2017-Apr-17 08:00N 25°51' W 079°53'4 8.7
2017-Apr-17 07:30N 25°53' W 079°48'5 9.2
2017-Apr-17 07:01N 25°55' W 079°44'5 9.3
2017-Apr-17 06:30N 25°57' W 079°39'510.8
2017-Apr-17 06:00N 25°60' W 079°34'611.6
2017-Apr-17 05:30N 26°02' W 079°28'816.2
2017-Apr-17 05:00N 26°06' W 079°20'  
Track history (hours):
 
Tides and Currents Weather Stations Pressure Air Temp Water Temp Dewpoint Dewpoint Depression Visibility Wind Speed Wind Dir Waves Ship Positions

Norwegian Sky (Norway)

Operator: Norwegian Cruise Line

Last reported at 2017-Apr-25 02:31 UTC. Time now 2017-Apr-25 02:54 UTC.
Position N 26°09' W 079°26'.

Length 259 m; draft 8 m.

Type: Ship. MMSI: 308865000.

Date/timePositionNaut miles runAvg speedWind from/ knotsBaromVisibWave heightAir tempDewpointWater temp
2017-Apr-25 02:31N 26°09' W 079°26'4 8.0
2017-Apr-25 02:00N 26°06' W 079°30'6707.2
2017-Apr-25 02:00N 26°00' W 079°30'5 9.7 110 / 211008.0 5.4 25.022.229.0
2017-Apr-25 01:31N 26°04' W 079°33'4 8.0
2017-Apr-25 01:01N 26°01' W 079°36'4 8.2
2017-Apr-25 00:31N 25°59' W 079°40'4 8.0
2017-Apr-25 00:00N 25°57' W 079°44'4 8.3
2017-Apr-24 23:31N 25°54' W 079°48'4 8.6
2017-Apr-24 23:00N 25°52' W 079°52'4 8.2
2017-Apr-24 22:30N 25°50' W 079°56'4 9.0
2017-Apr-24 22:00N 25°47' W 079°60'510.5
2017-Apr-24 21:30N 25°46' W 080°05'4 8.4
2017-Apr-24 21:00N 25°47' W 080°10'0 0.1
2017-Apr-24 20:29N 25°47' W 080°10'0 0.0
2017-Apr-24 19:59N 25°47' W 080°10'0 0.0
2017-Apr-24 19:29N 25°47' W 080°10'0 0.0
2017-Apr-24 18:56N 25°47' W 080°10'0 0.0
2017-Apr-24 18:29N 25°47' W 080°10'0 0.0
2017-Apr-24 17:58N 25°47' W 080°10'0 0.0
2017-Apr-24 17:28N 25°47' W 080°10'0 0.0
2017-Apr-24 16:58N 25°47' W 080°10'0 0.0
2017-Apr-24 16:22N 25°47' W 080°10'0 0.0
2017-Apr-24 16:00N 25°47' W 080°10'0 0.0
2017-Apr-24 15:30N 25°47' W 080°10'0 0.0
2017-Apr-24 15:00N 25°47' W 080°10'0 0.0
2017-Apr-24 14:30N 25°47' W 080°10'0 0.0
2017-Apr-24 13:30N 25°47' W 080°10'0 0.0
2017-Apr-24 12:59N 25°47' W 080°10'0 0.0
2017-Apr-24 12:30N 25°47' W 080°10'0 0.0
2017-Apr-24 12:00N 25°47' W 080°10'0 0.0
2017-Apr-24 11:30N 25°47' W 080°10'0 0.0
2017-Apr-24 10:57N 25°47' W 080°10'0 0.0
2017-Apr-24 10:30N 25°47' W 080°10'0 0.0
2017-Apr-24 09:59N 25°47' W 080°10'0 0.0
2017-Apr-24 09:30N 25°47' W 080°10'0 0.8
2017-Apr-24 09:01N 25°47' W 080°10'1 2.9
2017-Apr-24 08:31N 25°46' W 080°09'611.2
2017-Apr-24 08:00N 25°47' W 080°03'611.3
2017-Apr-24 07:30N 25°49' W 079°57'612.6
2017-Apr-24 07:00N 25°52' W 079°51'713.5
2017-Apr-24 06:30N 25°55' W 079°44'815.9
2017-Apr-24 06:00N 25°59' W 079°36'917.3
2017-Apr-24 05:30N 26°03' W 079°28'918.0
2017-Apr-24 05:00N 26°07' W 079°19'82 3.0
2017-Apr-23 02:00N 26°06' W 077°48'86 3.8 100 / 221014.0 5.4 24.022.629.0
2017-Apr-22 03:23N 26°04' W 079°24'411.2
2017-Apr-22 03:00N 26°02' W 079°28'611.4
2017-Apr-22 02:30N 25°60' W 079°34'611.3
2017-Apr-22 02:00N 25°57' W 079°39'4343.2
2017-Apr-22 02:00N 25°54' W 079°36'816.4 110 / 211015.0 2.2 23.018.529.0
2017-Apr-22 01:30N 25°54' W 079°45'612.0
2017-Apr-22 01:00N 25°52' W 079°51'611.9
2017-Apr-22 00:30N 25°49' W 079°57'611.6
2017-Apr-22 00:00N 25°46' W 080°02'510.5
2017-Apr-21 23:31N 25°46' W 080°08'2 3.6
2017-Apr-21 22:59N 25°46' W 080°10'0 0.0
2017-Apr-21 22:28N 25°46' W 080°10'0 0.0
2017-Apr-21 21:58N 25°46' W 080°10'0 0.0
2017-Apr-21 21:25N 25°46' W 080°10'0 0.0
2017-Apr-21 20:58N 25°46' W 080°10'0 0.0
2017-Apr-21 20:28N 25°46' W 080°10'0 0.0
2017-Apr-21 20:00N 25°46' W 080°10'0 0.0
2017-Apr-21 19:30N 25°46' W 080°10'0 0.0
2017-Apr-21 19:00N 25°46' W 080°10'0 0.0
2017-Apr-21 18:30N 25°46' W 080°10'0 0.0
2017-Apr-21 17:56N 25°46' W 080°10'0 0.0
2017-Apr-21 17:29N 25°46' W 080°10'0 0.0
2017-Apr-21 16:59N 25°46' W 080°10'0 0.0
2017-Apr-21 16:29N 25°46' W 080°10'0 0.0
2017-Apr-21 15:59N 25°46' W 080°10'0 0.0
2017-Apr-21 15:25N 25°46' W 080°10'0 0.0
2017-Apr-21 14:58N 25°46' W 080°10'0 0.0
2017-Apr-21 14:25N 25°46' W 080°10'0 0.0
2017-Apr-21 13:28N 25°46' W 080°10'0 0.0
2017-Apr-21 12:57N 25°46' W 080°10'0 0.0
2017-Apr-21 12:27N 25°46' W 080°10'0 0.0
2017-Apr-21 12:00N 25°46' W 080°10'0 0.0
2017-Apr-21 11:30N 25°46' W 080°10'0 0.0
2017-Apr-21 11:00N 25°46' W 080°10'0 0.0
2017-Apr-21 10:30N 25°46' W 080°10'1 2.1
2017-Apr-21 10:00N 25°47' W 080°11'2 4.5
2017-Apr-21 09:30N 25°46' W 080°09'5 9.6
2017-Apr-21 09:01N 25°47' W 080°03'5 9.3
2017-Apr-21 08:31N 25°49' W 079°59'4 8.8
2017-Apr-21 08:00N 25°51' W 079°54'4 9.0
2017-Apr-21 07:31N 25°53' W 079°50'5 9.5
2017-Apr-21 07:00N 25°55' W 079°45'5 9.9
2017-Apr-21 06:31N 25°57' W 079°40'611.2
2017-Apr-21 06:00N 25°60' W 079°35'612.1
2017-Apr-21 05:30N 26°02' W 079°29'816.6
2017-Apr-21 05:00N 26°06' W 079°20'917.4
2017-Apr-21 04:30N 26°10' W 079°12'60 1.2
2017-Apr-19 02:00N 26°00' W 078°06'69 3.1 080 / 231021.0 2.2 23.018.529.0
2017-Apr-18 03:32N 26°12' W 079°22'1 8.7
2017-Apr-18 03:24N 26°12' W 079°23'3 8.6
2017-Apr-18 03:00N 26°09' W 079°26'4 8.4
2017-Apr-18 02:30N 26°07' W 079°29'4 8.4
2017-Apr-18 02:00N 26°04' W 079°33'5334.0
2017-Apr-18 02:00N 26°00' W 079°30'612.1 090 / 181019.0 2.2 24.019.629.0
2017-Apr-18 01:30N 26°01' W 079°36'4 8.7
2017-Apr-18 01:00N 25°58' W 079°40'4 8.5
2017-Apr-18 00:30N 25°56' W 079°44'4 8.7
2017-Apr-18 00:01N 25°54' W 079°48'5 9.1
2017-Apr-17 23:30N 25°52' W 079°53'5 9.3
2017-Apr-17 23:01N 25°49' W 079°57'5 9.5
2017-Apr-17 22:31N 25°47' W 080°02'510.1
2017-Apr-17 22:00N 25°45' W 080°07'4 7.7
2017-Apr-17 21:30N 25°47' W 080°11'1 2.0
2017-Apr-17 21:00N 25°47' W 080°10'0 0.0
2017-Apr-17 20:27N 25°47' W 080°10'0 0.0
2017-Apr-17 20:00N 25°47' W 080°10'0 0.0
2017-Apr-17 19:29N 25°47' W 080°10'0 0.0
2017-Apr-17 18:59N 25°47' W 080°10'0 0.0
2017-Apr-17 18:29N 25°47' W 080°10'0 0.0
2017-Apr-17 17:59N 25°47' W 080°10'0 0.0
2017-Apr-17 17:29N 25°47' W 080°10'0 0.0
2017-Apr-17 16:58N 25°47' W 080°10'0 0.0
2017-Apr-17 16:25N 25°47' W 080°10'0 0.0
2017-Apr-17 15:58N 25°47' W 080°10'0 0.0
2017-Apr-17 15:28N 25°47' W 080°10'0 0.0
2017-Apr-17 15:00N 25°47' W 080°10'0 0.0
2017-Apr-17 14:30N 25°47' W 080°10'0 0.0
2017-Apr-17 13:27N 25°47' W 080°10'0 0.0
2017-Apr-17 13:00N 25°47' W 080°10'0 0.0
2017-Apr-17 12:29N 25°47' W 080°10'0 0.0
2017-Apr-17 11:59N 25°47' W 080°10'0 0.0
2017-Apr-17 11:29N 25°47' W 080°10'0 0.0
2017-Apr-17 10:53N 25°47' W 080°10'0 0.0
2017-Apr-17 10:30N 25°47' W 080°10'0 0.0
2017-Apr-17 10:00N 25°47' W 080°10'3 5.9
2017-Apr-17 09:30N 25°45' W 080°07'611.5
2017-Apr-17 09:00N 25°48' W 080°01'4 8.5
2017-Apr-17 08:30N 25°49' W 079°57'4 8.4
2017-Apr-17 08:00N 25°51' W 079°53'4 8.7
2017-Apr-17 07:30N 25°53' W 079°48'5 9.2
2017-Apr-17 07:01N 25°55' W 079°44'5 9.3
2017-Apr-17 06:30N 25°57' W 079°39'510.8
2017-Apr-17 06:00N 25°60' W 079°34'611.6
2017-Apr-17 05:30N 26°02' W 079°28'816.2
2017-Apr-17 05:00N 26°06' W 079°20'  

Dump ship's entire track history